Terminal Aerodrome Forecast
Issued by NWS Memphis, TN

Home | Current Version | Previous Version | Text Only | Print | Product List | Glossary On
Versions: 1 2 3 4 5 6 7 8 9 10 11 12 13 14 15 16
000
FTUS44 KMEG 281129
TAFMKL
TAF
KMKL 281129Z 2812/0112 18012G18KT P6SM VCTS OVC008CB
      TEMPO 2813/2817 4SM TSRA BR SCT008CB OVC012
     FM281700 19012G18KT P6SM VCSH BKN020 OVC035
     FM282100 20013G20KT P6SM BKN035
     FM010400 20016G24KT P6SM VCTS SCT030CB BKN040 WS020/20050KT
     FM010800 20016G24KT P6SM VCTS BKN020CB OVC030 WS020/21050KT=

USA.gov is the U.S. government's official web portal to all federal, state and local government web resources and services.